Portada
METAR-TAF:

METAR-TAF

Aeroports :

Kizilordà, Kazakhstan

latitud: 44-51N, longitud: 065-30E, altitud: 129 m

Observació

L'informe es va fer fa 38 minuts, a les 17:00 UTC
Vent 6 kt del Nord-Est, variant entre Nord/Nord-Est i Est
Temperatura -1°C
Humitat 93%
Pressió 1020 hPa
Visibilitat 10 km o més
Cel cobert a una alçada de 600 ft

METAR: UAOO 201700Z 05003MPS 020V080 9999 OVC006 M01/M02 Q1020 NOSIG RMK QBB200 QFE753/1004

Hora: 22:38 (17:38 UTC)

Pronòstic

L'informe es va fer fa 3 hores i 35 minuts, a les 14:03 UTC
Pronòstic vàlid del 20 a les 15 UTC al 20 a les 24 UTC
Vent 2 kt amb direcció variable
Visibilitat 10 km o més
Cel cobert a una alçada de 600 ft
Temporalment
l' 20 a les 18 UTC al 20 a les 24 UTC
Vent 12 kt del Est/Nord-Est
Visibilitat: 3000 m
Cel cobert a una alçada de 300 ft
neu, boirina

TAF: UAOO 201403Z 2015/2024 VRB01MPS 9999 OVC006 TEMPO 2018/2024 07006MPS 3000 -SN BR OVC003

Observacions i pronòstics meteorològics de més de 4000 aeroports (METAR i TAF).

Les estacions disponibles són els punts grocs i vermells al mapa.

Posi el ratolí al punt desitjat per veure el nom de l'estació.

Feu clic per veure les observacions i els pronòstics meteorològics.

Per canviar el mapa: feu clic els botons verds amb una creu de color negre per apropar; al botó verd amb un guió per allunyar la imatge; o en les fletxes verdes per a mapes adjacents.


METAR-TAF: